createdAt,value
2023-03-01T00:00:02.396Z,106.69
2023-03-01T00:15:02.933Z,106.69
2023-03-01T00:30:01.478Z,106.69
2023-03-01T00:45:01.824Z,106.69
2023-03-01T01:00:02.333Z,106.69
2023-03-01T01:15:01.680Z,106.69
2023-03-01T01:30:02.075Z,106.69
2023-03-01T01:45:01.777Z,106.69
2023-03-01T02:00:02.360Z,106.69
2023-03-01T02:15:02.930Z,106.69
2023-03-01T02:30:02.130Z,106.69
2023-03-01T02:45:01.769Z,106.69
2023-03-01T03:00:02.364Z,106.69
2023-03-01T03:15:02.866Z,106.69
2023-03-01T03:30:01.457Z,106.69
2023-03-01T03:45:01.787Z,106.69
2023-03-01T04:00:02.261Z,106.69
2023-03-01T04:15:02.858Z,106.69
2023-03-01T04:30:02.131Z,106.69
2023-03-01T04:45:01.720Z,106.69
2023-03-01T05:00:02.308Z,106.69
2023-03-01T05:15:01.671Z,106.69
2023-03-01T05:30:02.063Z,106.69
2023-03-01T05:45:01.706Z,106.69
2023-03-01T06:00:02.269Z,106.69
2023-03-01T06:15:02.749Z,106.69
2023-03-01T06:30:01.642Z,106.69
2023-03-01T06:45:01.975Z,106.69
2023-03-01T07:00:02.296Z,106.69
2023-03-01T07:15:02.822Z,106.69
2023-03-01T07:30:02.034Z,106.69
2023-03-01T07:45:01.735Z,106.69
2023-03-01T08:00:02.304Z,106.69
2023-03-01T08:15:02.883Z,106.69
2023-03-01T08:30:03.139Z,106.69
2023-03-01T08:45:01.844Z,106.69
2023-03-01T09:00:02.092Z,106.69
2023-03-01T09:15:02.104Z,106.69
2023-03-01T09:30:01.477Z,106.69
2023-03-01T09:45:02.858Z,106.69
2023-03-01T10:00:03.369Z,106.69
2023-03-01T10:15:02.181Z,106.69
2023-03-01T10:30:01.509Z,56.54
2023-03-01T10:45:01.844Z,54.27
2023-03-01T11:00:02.226Z,54.27
2023-03-01T11:15:01.898Z,54.27
2023-03-01T11:30:02.282Z,54.27
2023-03-01T11:45:01.602Z,47.23
2023-03-01T12:00:02.515Z,53.38
2023-03-01T12:15:02.050Z,53.38
2023-03-01T12:30:01.708Z,53.38
2023-03-01T12:45:01.792Z,53.38
2023-03-01T13:00:02.426Z,53.38
2023-03-01T13:15:01.600Z,39.38
2023-03-01T13:30:01.988Z,39.38
2023-03-01T13:45:01.724Z,39.38
2023-03-01T14:00:02.125Z,46.67
2023-03-01T14:15:02.194Z,46.67
2023-03-01T14:30:01.552Z,46.67
2023-03-01T14:45:01.859Z,81.3
2023-03-01T15:00:02.706Z,97.46
2023-03-01T15:15:04.549Z,99.93
2023-03-01T15:30:02.161Z,102.92
2023-03-01T15:45:02.690Z,102.92
2023-03-01T16:00:01.434Z,102.92
2023-03-01T16:15:01.649Z,102.92
2023-03-01T16:30:01.881Z,102.92
2023-03-01T16:45:03.959Z,102.92
2023-03-01T17:00:01.575Z,102.92
2023-03-01T17:15:01.322Z,102.92
2023-03-01T17:30:01.913Z,102.92
2023-03-01T17:45:02.457Z,102.92
2023-03-01T18:00:01.364Z,102.92
2023-03-01T18:15:02.352Z,102.92
2023-03-01T18:30:02.083Z,102.92
2023-03-01T18:45:02.653Z,102.92
2023-03-01T19:00:03.291Z,102.92
2023-03-01T19:15:02.264Z,102.92
2023-03-01T19:30:02.163Z,102.92
2023-03-01T19:45:02.725Z,102.92
2023-03-01T20:00:01.417Z,102.92
2023-03-01T20:15:02.164Z,102.92
2023-03-01T20:30:02.504Z,102.92
2023-03-01T20:45:01.821Z,102.92
2023-03-01T21:00:02.234Z,102.92
2023-03-01T21:15:02.164Z,102.92
2023-03-01T21:30:02.744Z,102.92
2023-03-01T21:45:01.581Z,102.92
2023-03-01T22:00:01.974Z,102.92
2023-03-01T22:15:02.382Z,102.92
2023-03-01T22:30:02.998Z,102.92
2023-03-01T22:45:01.518Z,102.92
2023-03-01T23:00:02.007Z,102.92
2023-03-01T23:15:03.115Z,102.92
2023-03-01T23:30:03.125Z,102.92
2023-03-01T23:45:01.584Z,102.92
